Terminal Aerodrome Forecast
Issued by NWS

Home | Current Version | Previous Version | Graphics & Text | Print | Product List | Glossary On
Versions: 1 2 3 4 5 6 7 8 9 10 11 12 13 14 15
369
FTUS43 KBIS 162340
TAFMOT
TAF
KMOT 162340Z 1700/1724 15011KT P6SM SCT120 BKN200
     FM170300 18009KT P6SM BKN120 OVC150
     FM170600 24010KT P6SM SCT200
     FM170800 28010KT P6SM SCT250=

USA.gov is the U.S. government's official web portal to all federal, state and local government web resources and services.